createdAt,value
2022-08-25T00:00:13.034Z,9.40
2022-08-25T00:03:00.024Z,8.85
2022-08-25T00:05:33.352Z,8.00
2022-08-25T00:08:02.006Z,8.25
2022-08-25T00:10:30.028Z,8.30
2022-08-25T00:12:57.180Z,7.47
2022-08-25T00:15:24.479Z,8.77
2022-08-25T00:17:51.949Z,9.15
2022-08-25T00:20:19.290Z,8.95
2022-08-25T00:22:46.313Z,9.02
2022-08-25T00:25:13.528Z,9.13
2022-08-25T00:27:40.627Z,8.95
2022-08-25T00:30:08.571Z,9.43
2022-08-25T00:32:36.239Z,8.23
2022-08-25T00:35:04.722Z,9.73
2022-08-25T00:37:31.629Z,10.82
2022-08-25T00:39:59.750Z,10.20
2022-08-25T00:42:26.963Z,11.10
2022-08-25T00:44:54.094Z,10.00
2022-08-25T00:47:21.336Z,12.30
2022-08-25T00:49:54.317Z,10.68
2022-08-25T00:52:23.237Z,12.60
2022-08-25T00:54:54.442Z,12.75
2022-08-25T00:57:34.056Z,12.30
2022-08-25T01:00:15.594Z,11.70
2022-08-25T01:02:43.281Z,11.82
2022-08-25T01:05:10.631Z,12.15
2022-08-25T01:07:38.250Z,12.90
2022-08-25T01:10:08.053Z,11.35
2022-08-25T01:12:37.459Z,10.82
2022-08-25T01:15:06.266Z,11.45
2022-08-25T01:17:47.228Z,12.38
2022-08-25T01:20:15.802Z,11.45
2022-08-25T01:22:42.996Z,12.02
2022-08-25T01:25:29.435Z,12.65
2022-08-25T01:27:57.101Z,14.55
2022-08-25T01:30:25.138Z,13.45
2022-08-25T01:32:52.417Z,13.23
2022-08-25T01:35:19.580Z,15.55
2022-08-25T01:37:47.713Z,15.10
2022-08-25T01:40:15.026Z,14.95
2022-08-25T01:43:07.139Z,14.18
2022-08-25T01:45:35.160Z,15.27
2022-08-25T01:48:02.684Z,15.50
2022-08-25T01:50:29.792Z,15.52
2022-08-25T01:53:24.423Z,15.20
2022-08-25T01:55:51.927Z,17.23
2022-08-25T01:58:20.340Z,16.65
2022-08-25T02:00:52.059Z,16.63
2022-08-25T02:03:19.899Z,16.40
2022-08-25T02:05:48.078Z,17.02
2022-08-25T02:08:15.932Z,16.83
2022-08-25T02:10:43.487Z,15.43
2022-08-25T02:13:11.023Z,17.58
2022-08-25T02:15:43.349Z,17.92
2022-08-25T02:18:11.560Z,16.73
2022-08-25T02:20:39.435Z,16.20
2022-08-25T02:23:06.551Z,16.90
2022-08-25T02:25:34.109Z,16.63
2022-08-25T02:28:01.201Z,16.05
2022-08-25T02:30:28.322Z,15.82
2022-08-25T02:32:55.711Z,18.38
2022-08-25T02:35:22.714Z,14.90
2022-08-25T02:37:51.999Z,14.70
2022-08-25T02:40:22.275Z,14.32
2022-08-25T02:42:51.350Z,15.18
2022-08-25T02:45:18.709Z,14.68
2022-08-25T02:47:46.402Z,13.75
2022-08-25T02:50:13.566Z,13.45
2022-08-25T02:52:41.289Z,14.02
2022-08-25T02:55:14.242Z,15.55
2022-08-25T02:57:42.316Z,17.05
2022-08-25T03:00:15.437Z,16.98
2022-08-25T03:02:43.467Z,15.38
2022-08-25T03:05:12.118Z,16.73
2022-08-25T03:07:39.209Z,15.52
2022-08-25T03:10:14.016Z,14.88
2022-08-25T03:12:45.504Z,15.50
2022-08-25T03:15:18.321Z,16.17
2022-08-25T03:17:47.104Z,16.20
2022-08-25T03:20:14.479Z,16.83
2022-08-25T03:22:42.640Z,17.25
2022-08-25T03:25:29.154Z,17.58
2022-08-25T03:27:56.444Z,16.40
2022-08-25T03:30:23.933Z,17.67
2022-08-25T03:32:50.854Z,16.33
2022-08-25T03:35:18.371Z,18.88
2022-08-25T03:37:45.814Z,20.92
2022-08-25T03:40:16.360Z,19.50
2022-08-25T03:42:45.409Z,17.98
2022-08-25T03:45:14.798Z,17.02
2022-08-25T03:47:42.677Z,19.48
2022-08-25T03:50:11.649Z,19.00
2022-08-25T03:52:42.579Z,20.33
2022-08-25T03:55:13.730Z,20.70
2022-08-25T03:57:40.962Z,20.92
2022-08-25T04:00:09.971Z,19.00
2022-08-25T04:02:41.424Z,19.23
2022-08-25T04:05:09.876Z,19.10
2022-08-25T04:07:37.351Z,18.38
2022-08-25T04:10:06.369Z,19.10
2022-08-25T04:12:34.327Z,21.20
2022-08-25T04:15:01.601Z,20.38
2022-08-25T04:17:29.034Z,20.83
2022-08-25T04:19:57.354Z,19.52
2022-08-25T04:22:24.358Z,19.30
2022-08-25T04:24:51.390Z,18.65
2022-08-25T04:27:19.151Z,19.73
2022-08-25T04:29:46.199Z,19.60
2022-08-25T04:32:13.967Z,17.38
2022-08-25T04:34:41.946Z,17.33
2022-08-25T04:37:09.174Z,17.60
2022-08-25T04:39:36.387Z,16.35
2022-08-25T04:42:04.350Z,17.23
2022-08-25T04:44:32.021Z,15.65
2022-08-25T04:47:00.256Z,15.32
2022-08-25T04:49:28.835Z,16.00
2022-08-25T04:51:57.457Z,16.25
2022-08-25T04:54:24.954Z,15.40
2022-08-25T04:56:54.609Z,14.93
2022-08-25T04:59:29.561Z,14.73
2022-08-25T05:02:02.341Z,13.45
2022-08-25T05:04:30.563Z,13.55
2022-08-25T05:06:59.644Z,15.38
2022-08-25T05:09:27.643Z,14.70
2022-08-25T05:11:55.077Z,14.18
2022-08-25T05:14:25.603Z,13.65
2022-08-25T05:16:58.058Z,12.65
2022-08-25T05:19:26.517Z,12.30
2022-08-25T05:21:54.096Z,13.13
2022-08-25T05:24:22.118Z,13.07
2022-08-25T05:26:49.442Z,12.32
2022-08-25T05:29:17.532Z,12.27
2022-08-25T05:31:50.011Z,11.88
2022-08-25T05:34:19.055Z,11.40
2022-08-25T05:36:47.098Z,11.60
2022-08-25T05:39:14.663Z,11.48
2022-08-25T05:41:41.853Z,12.55
2022-08-25T05:44:09.583Z,10.85
2022-08-25T05:46:36.702Z,10.95
2022-08-25T05:49:03.822Z,10.48
2022-08-25T05:51:31.115Z,10.43
2022-08-25T05:53:58.067Z,10.98
2022-08-25T05:56:25.094Z,10.55
2022-08-25T05:58:52.225Z,10.93
2022-08-25T06:01:43.510Z,10.18
2022-08-25T06:04:17.745Z,10.70
2022-08-25T06:06:44.922Z,9.30
2022-08-25T06:09:12.632Z,10.18
2022-08-25T06:11:41.514Z,10.35
2022-08-25T06:14:10.424Z,10.15
2022-08-25T06:16:39.351Z,10.32
2022-08-25T06:19:08.959Z,11.07
2022-08-25T06:21:39.199Z,11.52
2022-08-25T06:24:08.547Z,12.57
2022-08-25T06:26:38.609Z,11.82
2022-08-25T06:29:05.634Z,10.75
2022-08-25T06:31:32.954Z,11.00
2022-08-25T06:34:00.463Z,11.20
2022-08-25T06:36:27.411Z,10.98
2022-08-25T06:38:54.618Z,9.80
2022-08-25T06:41:22.423Z,11.50
2022-08-25T06:43:54.128Z,10.88
2022-08-25T06:46:34.678Z,10.48
2022-08-25T06:49:08.218Z,10.48
2022-08-25T06:51:38.258Z,10.15
2022-08-25T06:54:06.867Z,9.82
2022-08-25T06:56:34.450Z,9.75
2022-08-25T06:59:06.384Z,8.57
2022-08-25T07:01:34.718Z,8.68
2022-08-25T07:04:10.044Z,7.68
2022-08-25T07:06:39.250Z,7.30
2022-08-25T07:09:10.909Z,7.25
2022-08-25T07:11:39.491Z,6.57
2022-08-25T07:14:09.274Z,5.85
2022-08-25T07:16:37.007Z,5.95
2022-08-25T07:19:05.389Z,6.95
2022-08-25T07:21:35.713Z,6.03
2022-08-25T07:24:12.038Z,5.05
2022-08-25T07:26:42.158Z,5.68
2022-08-25T07:29:14.032Z,6.05
2022-08-25T07:31:41.632Z,5.15
2022-08-25T07:34:28.492Z,5.20
2022-08-25T07:36:57.081Z,4.88
2022-08-25T07:39:25.204Z,5.32
2022-08-25T07:41:53.221Z,5.57
2022-08-25T07:44:22.695Z,5.43
2022-08-25T07:46:50.986Z,5.57
2022-08-25T07:49:23.386Z,4.97
2022-08-25T07:52:05.250Z,5.80
2022-08-25T07:54:37.940Z,5.38
2022-08-25T07:57:10.104Z,6.22
2022-08-25T07:59:41.965Z,6.28
2022-08-25T08:02:18.185Z,6.68
2022-08-25T08:04:51.391Z,5.65
2022-08-25T08:07:33.617Z,7.63
2022-08-25T08:13:02.531Z,6.93
2022-08-25T08:15:30.313Z,6.38
2022-08-25T08:17:59.168Z,6.20
2022-08-25T08:20:27.179Z,6.63
2022-08-25T08:22:55.569Z,5.65
2022-08-25T08:25:27.283Z,5.90
2022-08-25T08:27:56.535Z,6.70
2022-08-25T08:30:26.174Z,6.63
2022-08-25T08:33:11.845Z,5.80
2022-08-25T08:35:41.541Z,6.43
2022-08-25T08:38:14.594Z,6.60
2022-08-25T08:41:14.039Z,7.20
2022-08-25T08:43:43.759Z,7.40
2022-08-25T08:46:11.379Z,7.15
2022-08-25T08:49:01.981Z,7.28
2022-08-25T08:51:36.616Z,6.90
2022-08-25T08:54:15.479Z,7.22
2022-08-25T08:56:48.336Z,7.40
2022-08-25T08:59:31.260Z,8.00
2022-08-25T09:02:01.869Z,7.10
2022-08-25T09:04:39.484Z,7.57
2022-08-25T09:07:33.402Z,7.90
2022-08-25T09:10:01.455Z,8.30
2022-08-25T09:12:48.765Z,7.97
2022-08-25T09:15:24.834Z,8.95
2022-08-25T09:18:13.443Z,8.70
2022-08-25T09:20:54.174Z,10.27
2022-08-25T09:23:29.881Z,9.80
2022-08-25T09:26:15.940Z,9.80
2022-08-25T09:28:55.253Z,9.25
2022-08-25T09:31:29.879Z,9.15
2022-08-25T09:34:02.202Z,8.40
2022-08-25T09:36:34.259Z,7.70
2022-08-25T09:39:05.455Z,7.15
2022-08-25T09:41:52.114Z,6.38
2022-08-25T09:44:26.590Z,7.80
2022-08-25T09:47:04.457Z,6.90
2022-08-25T09:49:47.397Z,7.05
2022-08-25T09:52:31.993Z,6.80
2022-08-25T09:55:07.952Z,6.82
2022-08-25T09:57:47.937Z,6.50
2022-08-25T10:00:16.000Z,6.55
2022-08-25T10:02:45.265Z,6.57
2022-08-25T10:05:25.067Z,6.60
2022-08-25T10:07:58.840Z,5.82
2022-08-25T10:10:42.000Z,6.72
2022-08-25T10:13:22.853Z,6.28
2022-08-25T10:16:24.490Z,6.85
2022-08-25T10:19:09.240Z,6.40
2022-08-25T10:21:39.114Z,5.60
2022-08-25T10:24:09.445Z,5.55
2022-08-25T10:26:39.287Z,4.43
2022-08-25T10:29:12.148Z,5.22
2022-08-25T10:31:52.474Z,4.40
2022-08-25T10:34:44.632Z,4.65
2022-08-25T10:37:20.711Z,3.80
2022-08-25T10:40:03.586Z,4.32
2022-08-25T10:42:51.709Z,4.00
2022-08-25T10:45:44.578Z,3.83
2022-08-25T10:48:30.459Z,4.25
2022-08-25T10:51:22.545Z,3.72
2022-08-25T10:53:56.086Z,3.80
2022-08-25T10:56:29.227Z,3.58
2022-08-25T10:59:09.136Z,3.50
2022-08-25T11:01:55.106Z,3.72
2022-08-25T11:04:29.488Z,3.53
2022-08-25T11:07:07.863Z,3.50
2022-08-25T11:09:40.582Z,2.97
2022-08-25T11:12:16.222Z,4.15
2022-08-25T11:14:50.801Z,3.30
2022-08-25T11:17:39.750Z,3.63
2022-08-25T11:20:26.480Z,3.38
2022-08-25T11:23:06.532Z,3.58
2022-08-25T11:25:45.951Z,2.85
2022-08-25T11:28:22.324Z,2.85
2022-08-25T11:30:52.481Z,3.22
2022-08-25T11:33:20.280Z,3.28
2022-08-25T11:36:03.348Z,3.50
2022-08-25T11:38:49.038Z,2.88
2022-08-25T11:41:40.800Z,3.13
2022-08-25T11:44:17.043Z,3.08
2022-08-25T11:46:59.472Z,3.38
2022-08-25T11:49:39.710Z,3.72
2022-08-25T11:52:32.701Z,3.35
2022-08-25T11:55:27.964Z,4.00
2022-08-25T11:58:30.729Z,3.58
2022-08-25T12:01:00.641Z,3.70
2022-08-25T12:03:36.514Z,3.83
2022-08-25T12:06:29.146Z,3.00
2022-08-25T12:09:06.117Z,3.85
2022-08-25T12:11:39.830Z,3.10
2022-08-25T12:14:28.997Z,3.80
2022-08-25T12:17:00.375Z,4.97
2022-08-25T12:19:36.342Z,4.40
2022-08-25T12:22:04.100Z,3.75
2022-08-25T12:24:57.038Z,4.50
2022-08-25T12:27:39.131Z,4.82
2022-08-25T12:30:21.496Z,4.40
2022-08-25T12:32:49.025Z,4.75
2022-08-25T12:35:29.904Z,5.07
2022-08-25T12:38:42.464Z,5.53
2022-08-25T12:41:19.193Z,5.70
2022-08-25T12:43:49.356Z,5.53
2022-08-25T12:46:29.915Z,5.15
2022-08-25T12:49:02.881Z,5.90
2022-08-25T12:51:33.023Z,4.80
2022-08-25T12:54:36.999Z,4.50
2022-08-25T12:57:25.097Z,5.32
2022-08-25T12:59:59.609Z,4.60
2022-08-25T13:02:52.138Z,4.15
2022-08-25T13:05:25.534Z,3.72
2022-08-25T13:07:58.521Z,4.45
2022-08-25T13:10:56.179Z,4.13
2022-08-25T13:13:45.037Z,4.00
2022-08-25T13:16:24.568Z,4.40
2022-08-25T13:18:59.435Z,3.85
2022-08-25T13:21:38.992Z,3.78
2022-08-25T13:24:28.213Z,3.65
2022-08-25T13:27:08.913Z,3.72
2022-08-25T13:29:49.349Z,3.40
2022-08-25T13:32:26.471Z,4.38
2022-08-25T13:35:32.527Z,4.05
2022-08-25T13:38:14.865Z,4.18
2022-08-25T13:40:43.172Z,4.10
2022-08-25T13:43:14.938Z,4.53
2022-08-25T13:45:50.351Z,3.75
2022-08-25T13:48:34.741Z,5.35
2022-08-25T13:51:31.585Z,4.53
2022-08-25T13:54:02.846Z,4.70
2022-08-25T13:56:50.103Z,5.20
2022-08-25T13:59:33.190Z,5.43
2022-08-25T14:02:00.754Z,4.03
2022-08-25T14:04:32.369Z,4.50
2022-08-25T14:07:09.088Z,4.75
2022-08-25T14:10:00.154Z,5.55
2022-08-25T14:12:40.628Z,4.70
2022-08-25T14:15:16.711Z,4.82
2022-08-25T14:18:07.945Z,4.80
2022-08-25T14:20:37.626Z,4.90
2022-08-25T14:23:18.944Z,4.95
2022-08-25T14:25:48.850Z,6.78
2022-08-25T14:28:21.028Z,5.43
2022-08-25T14:31:14.878Z,4.90
2022-08-25T14:33:50.108Z,5.75
2022-08-25T14:36:20.716Z,5.68
2022-08-25T14:38:54.777Z,5.45
2022-08-25T14:41:24.533Z,4.93
2022-08-25T14:43:51.675Z,5.00
2022-08-25T14:46:28.625Z,5.00
2022-08-25T14:49:03.222Z,5.40
2022-08-25T14:51:32.667Z,5.75
2022-08-25T14:54:03.398Z,6.07
2022-08-25T14:56:32.199Z,5.72
2022-08-25T14:59:00.086Z,5.07
2022-08-25T15:01:30.107Z,6.10
2022-08-25T15:04:05.217Z,6.28
2022-08-25T15:06:36.223Z,5.25
2022-08-25T15:09:08.608Z,5.20
2022-08-25T15:11:36.832Z,6.07
2022-08-25T15:14:10.981Z,5.75
2022-08-25T15:16:43.997Z,5.47
2022-08-25T15:19:15.950Z,6.05
2022-08-25T15:21:45.301Z,6.30
2022-08-25T15:24:17.683Z,5.72
2022-08-25T15:26:56.127Z,5.80
2022-08-25T15:29:26.342Z,6.07
2022-08-25T15:31:53.648Z,6.22
2022-08-25T15:34:42.215Z,6.15
2022-08-25T15:37:15.227Z,6.57
2022-08-25T15:39:45.203Z,6.22
2022-08-25T15:42:12.935Z,6.72
2022-08-25T15:44:40.434Z,6.70
2022-08-25T15:47:12.514Z,6.72
2022-08-25T15:49:40.362Z,6.80
2022-08-25T15:52:07.398Z,6.10
2022-08-25T15:54:34.560Z,5.85
2022-08-25T15:57:03.552Z,5.63
2022-08-25T15:59:35.835Z,5.68
2022-08-25T16:02:14.904Z,5.85
2022-08-25T16:04:42.464Z,6.10
2022-08-25T16:07:09.979Z,6.22
2022-08-25T16:09:41.330Z,6.85
2022-08-25T16:12:08.878Z,5.50
2022-08-25T16:14:38.022Z,6.28
2022-08-25T16:17:06.575Z,5.88
2022-08-25T16:19:33.768Z,6.60
2022-08-25T16:22:03.447Z,6.25
2022-08-25T16:24:38.486Z,7.20
2022-08-25T16:27:10.936Z,6.55
2022-08-25T16:29:42.823Z,7.80
2022-08-25T16:32:13.396Z,6.05
2022-08-25T16:34:41.485Z,5.82
2022-08-25T16:37:09.198Z,6.68
2022-08-25T16:39:37.198Z,6.97
2022-08-25T16:42:07.084Z,6.22
2022-08-25T16:44:34.542Z,5.95
2022-08-25T16:47:01.879Z,6.97
2022-08-25T16:49:29.099Z,7.35
2022-08-25T16:51:57.202Z,7.30
2022-08-25T16:54:44.919Z,6.70
2022-08-25T16:57:13.017Z,6.47
2022-08-25T16:59:42.555Z,7.45
2022-08-25T17:02:11.176Z,6.60
2022-08-25T17:04:38.258Z,7.13
2022-08-25T17:07:05.631Z,7.47
2022-08-25T17:09:35.030Z,6.85
2022-08-25T17:12:02.129Z,6.53
2022-08-25T17:14:29.328Z,6.97
2022-08-25T17:16:56.451Z,6.80
2022-08-25T17:19:25.807Z,6.63
2022-08-25T17:21:54.814Z,6.82
2022-08-25T17:24:29.392Z,7.45
2022-08-25T17:26:59.645Z,6.70
2022-08-25T17:29:28.724Z,7.40
2022-08-25T17:31:55.696Z,6.50
2022-08-25T17:34:23.177Z,7.43
2022-08-25T17:36:51.417Z,7.22
2022-08-25T17:39:22.104Z,6.28
2022-08-25T17:41:50.652Z,6.68
2022-08-25T17:44:18.556Z,6.82
2022-08-25T17:46:47.023Z,6.35
2022-08-25T17:49:17.160Z,6.55
2022-08-25T17:51:45.180Z,8.52
2022-08-25T17:54:12.621Z,6.75
2022-08-25T17:56:40.223Z,6.75
2022-08-25T17:59:07.578Z,7.38
2022-08-25T18:01:40.563Z,6.63
2022-08-25T18:04:16.955Z,7.55
2022-08-25T18:06:45.931Z,6.70
2022-08-25T18:09:14.508Z,7.03
2022-08-25T18:11:42.620Z,7.95
2022-08-25T18:14:11.461Z,7.80
2022-08-25T18:16:38.961Z,8.70
2022-08-25T18:19:06.472Z,8.07
2022-08-25T18:21:36.915Z,7.40
2022-08-25T18:24:04.998Z,7.22
2022-08-25T18:26:32.288Z,8.57
2022-08-25T18:28:59.525Z,7.85
2022-08-25T18:31:26.837Z,8.18
2022-08-25T18:33:53.984Z,7.82
2022-08-25T18:36:21.316Z,8.13
2022-08-25T18:39:08.255Z,7.20
2022-08-25T18:41:40.073Z,8.23
2022-08-25T18:44:08.912Z,7.95
2022-08-25T18:46:39.964Z,7.90
2022-08-25T18:49:07.104Z,8.50
2022-08-25T18:51:36.146Z,9.20
2022-08-25T18:54:04.188Z,7.80
2022-08-25T18:56:31.362Z,7.97
2022-08-25T18:58:58.765Z,8.48
2022-08-25T19:01:25.917Z,8.90
2022-08-25T19:03:53.132Z,9.25
2022-08-25T19:06:20.844Z,8.88
2022-08-25T19:08:48.557Z,10.88
2022-08-25T19:11:16.674Z,9.70
2022-08-25T19:13:44.817Z,10.73
2022-08-25T19:16:20.460Z,9.65
2022-08-25T19:18:49.089Z,11.35
2022-08-25T19:21:22.867Z,10.95
2022-08-25T19:23:51.414Z,10.93
2022-08-25T19:26:19.718Z,11.20
2022-08-25T19:28:48.815Z,10.70
2022-08-25T19:31:27.483Z,10.93
2022-08-25T19:34:01.207Z,12.50
2022-08-25T19:36:29.969Z,11.20
2022-08-25T19:39:00.243Z,11.30
2022-08-25T19:41:28.950Z,10.82
2022-08-25T19:43:57.655Z,11.00
2022-08-25T19:46:35.410Z,11.73
2022-08-25T19:49:08.823Z,11.38
2022-08-25T19:51:38.930Z,10.27
2022-08-25T19:54:08.948Z,11.73
2022-08-25T19:56:53.793Z,11.52
2022-08-25T19:59:42.280Z,10.82
2022-08-25T20:02:15.738Z,11.40
2022-08-25T20:04:49.639Z,12.35
2022-08-25T20:07:19.886Z,11.48
2022-08-25T20:09:48.265Z,11.15
2022-08-25T20:14:49.848Z,11.70
2022-08-25T20:17:23.427Z,10.40
2022-08-25T20:19:55.532Z,11.85
2022-08-25T20:22:26.621Z,12.35
2022-08-25T20:25:00.339Z,12.38
2022-08-25T20:27:41.061Z,11.65
2022-08-25T20:30:16.769Z,12.32
2022-08-25T20:32:44.600Z,12.30
2022-08-25T20:35:14.408Z,12.48
2022-08-25T20:37:44.528Z,12.60
2022-08-25T20:40:14.391Z,12.13
2022-08-25T20:42:43.580Z,10.70
2022-08-25T20:45:14.124Z,10.77
2022-08-25T20:47:41.903Z,11.38
2022-08-25T20:50:10.166Z,12.43
2022-08-25T20:52:39.206Z,13.35
2022-08-25T20:55:11.186Z,12.50
2022-08-25T20:57:39.816Z,10.38
2022-08-25T21:00:08.556Z,12.80
2022-08-25T21:02:37.121Z,12.30
2022-08-25T21:05:04.807Z,13.32
2022-08-25T21:07:32.114Z,13.18
2022-08-25T21:10:07.094Z,14.40
2022-08-25T21:12:39.103Z,12.60
2022-08-25T21:15:07.323Z,13.10
2022-08-25T21:17:35.182Z,12.70
2022-08-25T21:20:02.541Z,12.57
2022-08-25T21:22:30.128Z,12.70
2022-08-25T21:24:57.170Z,15.05
2022-08-25T21:27:24.195Z,13.80
2022-08-25T21:29:55.237Z,16.00
2022-08-25T21:32:24.501Z,12.45
2022-08-25T21:34:57.635Z,12.93
2022-08-25T21:37:27.030Z,13.00
2022-08-25T21:39:54.363Z,12.85
2022-08-25T21:42:23.989Z,13.13
2022-08-25T21:44:52.742Z,13.95
2022-08-25T21:47:20.897Z,14.32
2022-08-25T21:49:49.744Z,13.73
2022-08-25T21:52:17.773Z,14.32
2022-08-25T21:54:45.109Z,13.50
2022-08-25T21:57:12.810Z,13.98
2022-08-25T21:59:43.518Z,12.95
2022-08-25T22:02:13.234Z,12.30
2022-08-25T22:04:42.105Z,11.50
2022-08-25T22:07:11.065Z,11.07
2022-08-25T22:09:40.073Z,11.95
2022-08-25T22:12:07.553Z,12.55
2022-08-25T22:14:36.287Z,12.93
2022-08-25T22:17:06.237Z,11.93
2022-08-25T22:19:36.251Z,11.30
2022-08-25T22:22:04.064Z,12.55
2022-08-25T22:24:31.153Z,11.00
2022-08-25T22:26:58.497Z,12.57
2022-08-25T22:29:27.020Z,12.25
2022-08-25T22:32:00.681Z,13.43
2022-08-25T22:34:34.554Z,11.90
2022-08-25T22:37:03.454Z,12.82
2022-08-25T22:39:31.439Z,12.90
2022-08-25T22:42:00.017Z,14.05
2022-08-25T22:44:27.144Z,12.88
2022-08-25T22:46:54.092Z,14.05
2022-08-25T22:49:21.950Z,12.75
2022-08-25T22:51:49.378Z,11.50
2022-08-25T22:54:16.769Z,11.32
2022-08-25T22:56:43.896Z,11.25
2022-08-25T22:59:13.477Z,10.45
2022-08-25T23:01:42.693Z,11.80
2022-08-25T23:04:10.787Z,9.98
2022-08-25T23:06:38.069Z,9.88
2022-08-25T23:09:07.635Z,11.95
2022-08-25T23:11:38.574Z,12.20
2022-08-25T23:14:10.152Z,10.63
2022-08-25T23:16:39.537Z,12.80
2022-08-25T23:19:10.880Z,12.27
2022-08-25T23:21:59.549Z,12.95
2022-08-25T23:24:29.234Z,10.35
2022-08-25T23:27:00.913Z,11.75
2022-08-25T23:29:28.797Z,11.10
2022-08-25T23:32:00.880Z,11.27
2022-08-25T23:34:29.272Z,11.15
2022-08-25T23:36:57.074Z,11.63
2022-08-25T23:39:24.679Z,11.45
2022-08-25T23:41:52.309Z,12.27
2022-08-25T23:44:20.728Z,11.63
2022-08-25T23:46:48.840Z,12.98
2022-08-25T23:49:21.869Z,13.10
2022-08-25T23:51:52.783Z,13.82
2022-08-25T23:54:21.214Z,12.70
2022-08-25T23:56:52.493Z,13.65
2022-08-25T23:59:24.411Z,14.68
